Time;durP1;ratioP1;P1;durP2;ratioP2;P2;SDS_P1;SDS_P2;PMS_P1;PMS_P2;Temp;Humidity;BMP_temperature;BMP_pressure;BME280_temperature;BME280_humidity;BME280_pressure;Samples;Min_cycle;Max_cycle;Signal;HPM_P1;HPM_P2
2023/04/21 00:02:14;;;;;;;17.13;9.65;;;;;;;14.44;53.79;101943.31;5004456;28;20042;-55
2023/04/21 00:04:40;;;;;;;19.80;9.65;;;;;;;14.45;53.67;101936.19;4990666;28;20081;-56
2023/04/21 00:07:07;;;;;;;21.35;10.75;;;;;;;14.45;53.72;101945.00;4998499;28;20104;-56
2023/04/21 00:09:32;;;;;;;16.95;10.00;;;;;;;14.42;53.53;101934.59;5002219;28;20030;-56
2023/04/21 00:11:58;;;;;;;17.63;9.85;;;;;;;14.41;53.51;101943.47;5002675;28;20037;-55
2023/04/21 00:14:23;;;;;;;15.80;9.73;;;;;;;14.40;53.40;101935.63;5004901;28;20029;-54
2023/04/21 00:16:51;;;;;;;21.15;10.25;;;;;;;14.40;53.29;101940.91;5003912;28;20033;-55
2023/04/21 00:19:18;;;;;;;22.58;9.80;;;;;;;14.39;53.14;101934.75;4986199;28;20688;-54
2023/04/21 00:21:44;;;;;;;20.15;10.73;;;;;;;14.37;53.08;101941.06;5005277;28;20042;-56
2023/04/21 00:24:10;;;;;;;26.10;10.25;;;;;;;14.36;52.95;101936.72;5005856;28;20037;-55
2023/04/21 00:26:35;;;;;;;16.85;9.32;;;;;;;14.31;52.84;101935.16;4997398;28;20033;-54
2023/04/21 00:29:01;;;;;;;22.17;11.00;;;;;;;14.30;52.95;101933.44;5012333;28;20041;-55
2023/04/21 00:31:27;;;;;;;20.17;10.75;;;;;;;14.26;52.80;101941.66;5008089;28;20045;-52
2023/04/21 00:33:52;;;;;;;18.23;10.55;;;;;;;14.23;52.91;101928.56;4999530;28;20451;-58
2023/04/21 00:36:18;;;;;;;16.55;9.57;;;;;;;14.20;52.92;101931.41;5010259;28;20041;-50
2023/04/21 00:38:43;;;;;;;17.27;10.63;;;;;;;14.13;52.88;101929.09;5001348;28;20022;-52
2023/04/21 00:41:09;;;;;;;25.63;10.63;;;;;;;14.09;52.94;101935.47;5007170;28;20619;-52
2023/04/21 00:43:35;;;;;;;20.10;10.90;;;;;;;14.05;53.03;101931.31;5005816;28;20029;-56
2023/04/21 00:46:00;;;;;;;15.02;9.75;;;;;;;14.06;52.98;101932.16;5006617;28;20037;-53
2023/04/21 00:48:25;;;;;;;23.98;10.85;;;;;;;14.05;53.00;101930.44;5006798;28;20018;-55
2023/04/21 00:50:51;;;;;;;19.83;11.35;;;;;;;14.00;53.04;101934.16;5003699;28;20037;-54
2023/04/21 00:53:17;;;;;;;17.02;10.38;;;;;;;14.04;52.90;101932.25;5002176;28;20061;-53
2023/04/21 00:55:42;;;;;;;15.55;9.90;;;;;;;14.06;52.53;101932.16;5003067;28;20041;-54
2023/04/21 00:58:08;;;;;;;19.15;9.93;;;;;;;14.05;52.39;101920.72;4998497;28;20476;-55
2023/04/21 01:00:33;;;;;;;19.08;9.80;;;;;;;14.00;52.26;101920.94;4996728;28;20037;-54
2023/04/21 01:03:00;;;;;;;15.50;9.70;;;;;;;13.97;52.48;101923.78;5005351;28;20092;-54
2023/04/21 01:05:26;;;;;;;18.17;9.80;;;;;;;13.96;52.62;101930.00;4999025;28;20503;-54
2023/04/21 01:07:51;;;;;;;18.13;10.05;;;;;;;13.93;52.55;101927.50;5002957;28;20037;-55
2023/04/21 01:10:17;;;;;;;19.60;10.65;;;;;;;13.92;52.58;101933.72;4993215;28;20039;-52
2023/04/21 01:12:44;;;;;;;16.88;10.63;;;;;;;13.91;52.54;101936.47;5007334;28;20152;-55
2023/04/21 01:15:11;;;;;;;21.92;10.70;;;;;;;13.86;52.49;101923.47;5004133;28;20093;-55
2023/04/21 01:17:37;;;;;;;19.20;10.07;;;;;;;13.80;52.63;101927.28;5001073;28;20143;-51
2023/04/21 01:20:08;;;;;;;14.70;7.68;;;;;;;13.79;52.64;101924.75;4984866;28;20554;-57
2023/04/21 01:22:36;;;;;;;21.70;11.80;;;;;;;13.77;52.82;101927.44;4991573;28;20249;-55
2023/04/21 01:25:02;;;;;;;17.58;9.90;;;;;;;13.75;52.68;101925.81;5015255;28;20064;-58
2023/04/21 01:27:28;;;;;;;21.05;11.68;;;;;;;13.75;52.57;101923.19;5018014;28;20049;-49
2023/04/21 01:29:54;;;;;;;18.48;10.90;;;;;;;13.71;52.59;101918.03;5010792;28;22222;-50
2023/04/21 01:32:22;;;;;;;18.05;10.68;;;;;;;13.71;52.61;101917.22;5008211;28;20148;-50
2023/04/21 01:34:49;;;;;;;19.38;10.93;;;;;;;13.71;52.35;101918.03;5006533;28;20031;-50
2023/04/21 01:37:21;;;;;;;17.00;9.52;;;;;;;13.70;52.42;101911.03;5006471;28;20056;-57
2023/04/21 01:39:50;;;;;;;;;;;;;;;13.63;52.34;101917.59;5014474;28;20034;-53
2023/04/21 01:42:15;;;;;;;19.35;10.38;;;;;;;13.55;52.68;101911.84;5005805;28;19921;-53
2023/04/21 01:44:41;;;;;;;23.33;11.02;;;;;;;13.53;52.70;101908.44;5010146;28;20037;-53
2023/04/21 01:47:06;;;;;;;17.45;10.07;;;;;;;13.51;52.59;101912.97;5008751;28;20037;-52
2023/04/21 01:49:32;;;;;;;21.63;10.05;;;;;;;13.49;52.67;101917.47;5012062;28;20056;-53
2023/04/21 01:51:57;;;;;;;16.77;9.70;;;;;;;13.48;52.80;101915.75;5005825;28;20079;-53
2023/04/21 01:54:23;;;;;;;21.50;10.23;;;;;;;13.47;52.70;101909.59;4988645;28;20057;-54
2023/04/21 01:56:48;;;;;;;20.10;10.00;;;;;;;13.45;52.58;101915.91;5005989;28;20032;-50
2023/04/21 01:59:13;;;;;;;17.98;10.15;;;;;;;13.41;52.56;101910.75;5001571;28;20029;-55
2023/04/21 02:01:39;;;;;;;18.95;9.85;;;;;;;13.41;52.51;101915.22;5008249;28;20033;-54
2023/04/21 02:04:04;;;;;;;17.73;10.82;;;;;;;13.38;52.74;101910.03;5004290;28;20078;-53
2023/04/21 02:06:32;;;;;;;16.80;9.52;;;;;;;13.37;52.78;101916.25;5003322;28;22906;-54
2023/04/21 02:08:58;;;;;;;21.08;10.88;;;;;;;13.37;52.64;101909.19;4989440;28;20382;-55
2023/04/21 02:11:24;;;;;;;15.57;10.25;;;;;;;13.36;52.61;101914.56;4994073;28;20534;-55
2023/04/21 02:13:54;;;;;;;16.58;9.93;;;;;;;13.35;52.50;101910.19;5009924;28;20033;-49
2023/04/21 02:16:20;;;;;;;17.90;9.85;;;;;;;13.27;52.65;101914.09;5004650;28;20033;-59
2023/04/21 02:18:47;;;;;;;20.77;11.20;;;;;;;13.26;52.58;101911.50;5008425;28;20032;-58
2023/04/21 02:21:13;;;;;;;17.27;9.63;;;;;;;13.22;52.64;101907.34;5004283;28;20044;-54
2023/04/21 02:23:38;;;;;;;17.88;10.23;;;;;;;13.21;52.53;101910.91;4999936;28;20045;-55
2023/04/21 02:26:04;;;;;;;18.55;10.90;;;;;;;13.22;52.42;101904.69;4998403;28;20026;-55
2023/04/21 02:28:30;;;;;;;17.85;10.82;;;;;;;13.18;52.63;101909.25;5009126;28;20457;-55
2023/04/21 02:30:56;;;;;;;20.70;9.68;;;;;;;13.22;52.53;101910.81;4996704;28;20444;-56
2023/04/21 02:33:21;;;;;;;18.38;10.60;;;;;;;13.22;52.60;101912.63;5004343;28;20503;-56
2023/04/21 02:35:47;;;;;;;19.42;11.48;;;;;;;13.20;52.42;101907.41;5010819;28;20039;-51
2023/04/21 02:38:12;;;;;;;17.40;10.70;;;;;;;13.21;52.44;101917.03;5007442;28;20030;-54
2023/04/21 02:40:37;;;;;;;19.73;10.80;;;;;;;13.19;52.23;101910.97;5002305;28;20033;-52
2023/04/21 02:43:03;;;;;;;16.33;10.02;;;;;;;13.18;52.17;101911.06;5009594;28;20071;-53
2023/04/21 02:45:28;;;;;;;17.08;9.90;;;;;;;13.15;52.39;101919.13;5009476;28;20036;-53
2023/04/21 02:47:54;;;;;;;20.77;10.48;;;;;;;13.13;52.46;101910.41;5003053;28;20124;-54
2023/04/21 02:50:19;;;;;;;19.95;11.35;;;;;;;13.09;52.29;101915.84;5009092;28;20040;-52
2023/04/21 02:52:45;;;;;;;15.95;9.88;;;;;;;13.06;52.34;101916.03;4986086;28;20652;-53
2023/04/21 02:55:10;;;;;;;20.42;10.23;;;;;;;13.04;52.32;101906.44;5012173;28;20033;-55
2023/04/21 02:57:36;;;;;;;16.77;10.52;;;;;;;13.03;52.19;101902.97;5003969;28;20033;-52
2023/04/21 03:00:03;;;;;;;18.33;9.70;;;;;;;13.01;52.21;101906.63;5007399;28;20030;-54
2023/04/21 03:02:28;;;;;;;20.25;10.48;;;;;;;12.92;52.41;101907.94;5006627;28;20168;-52
2023/04/21 03:04:55;;;;;;;17.15;10.30;;;;;;;12.88;52.32;101901.06;5010679;28;20037;-52
2023/04/21 03:07:20;;;;;;;18.65;10.80;;;;;;;12.83;52.57;101908.34;4994812;28;20033;-53
2023/04/21 03:09:46;;;;;;;18.75;10.25;;;;;;;12.80;52.74;101904.94;5004889;28;20026;-55
2023/04/21 03:12:11;;;;;;;18.58;10.82;;;;;;;12.80;52.72;101904.94;5006854;28;20040;-54
2023/04/21 03:14:36;;;;;;;18.75;10.57;;;;;;;12.80;52.65;101902.28;5006200;28;20030;-55
2023/04/21 03:17:02;;;;;;;20.50;9.85;;;;;;;12.77;52.56;101894.53;5006423;28;20460;-53
2023/04/21 03:19:28;;;;;;;17.42;9.95;;;;;;;12.73;52.72;101902.66;4992282;28;20092;-53
2023/04/21 03:21:54;;;;;;;17.30;9.18;;;;;;;12.71;52.70;101894.81;5004260;28;20068;-55
2023/04/21 03:24:20;;;;;;;19.30;11.02;;;;;;;12.74;52.62;101897.31;5004832;28;20032;-53
2023/04/21 03:26:45;;;;;;;19.23;10.63;;;;;;;12.75;52.43;101899.03;5000743;28;20033;-55
2023/04/21 03:29:11;;;;;;;16.00;10.73;;;;;;;12.75;52.58;101890.25;5007825;28;20049;-55
2023/04/21 03:31:36;;;;;;;14.95;9.77;;;;;;;12.72;52.49;101893.91;5011961;28;20029;-54
2023/04/21 03:34:02;;;;;;;24.13;10.07;;;;;;;12.67;52.53;101887.97;5001805;28;20963;-55
2023/04/21 03:36:27;;;;;;;17.25;9.93;;;;;;;12.64;52.56;101893.41;5009356;28;20026;-55
2023/04/21 03:38:52;;;;;;;17.08;9.88;;;;;;;12.64;52.80;101898.69;5007334;28;20038;-54
2023/04/21 03:41:18;;;;;;;14.90;9.75;;;;;;;12.64;52.62;101893.41;5000167;28;20022;-53
2023/04/21 03:43:43;;;;;;;22.00;10.57;;;;;;;12.65;52.39;101895.09;5004149;28;20075;-53
2023/04/21 03:46:17;;;;;;;17.42;9.40;;;;;;;12.66;52.42;101894.19;5000494;28;20041;-54
2023/04/21 03:48:42;;;;;;;17.35;9.73;;;;;;;12.66;52.61;101896.81;5007779;28;20109;-53
2023/04/21 03:51:08;;;;;;;19.20;10.50;;;;;;;12.63;52.52;101895.19;5003270;28;20117;-54
2023/04/21 03:53:33;;;;;;;19.40;9.93;;;;;;;12.63;52.34;101889.03;5007291;28;20483;-54
2023/04/21 03:55:58;;;;;;;16.08;8.75;;;;;;;12.62;52.57;101896.13;5001848;28;20046;-53
2023/04/21 03:58:24;;;;;;;27.77;14.95;;;;;;;12.61;52.52;101894.41;4998793;28;20034;-52
2023/04/21 04:00:50;;;;;;;19.50;11.55;;;;;;;12.58;52.36;101893.72;5002594;28;20086;-53
2023/04/21 04:03:15;;;;;;;23.95;10.60;;;;;;;12.53;52.44;101891.28;5003020;28;20117;-53
2023/04/21 04:05:41;;;;;;;16.55;10.02;;;;;;;12.53;52.45;101891.28;4998603;28;20106;-55
2023/04/21 04:08:06;;;;;;;16.42;9.73;;;;;;;12.52;52.40;101888.72;5009659;28;20040;-55
2023/04/21 04:10:31;;;;;;;25.70;11.85;;;;;;;12.53;52.53;101887.78;5001619;28;20073;-56
2023/04/21 04:12:57;;;;;;;16.73;10.27;;;;;;;12.52;52.51;101899.28;4999393;28;20055;-52
2023/04/21 04:15:22;;;;;;;26.85;12.15;;;;;;;12.50;52.36;101902.00;5005248;28;20038;-51
2023/04/21 04:17:48;;;;;;;21.65;11.95;;;;;;;12.48;52.61;101894.13;5004885;28;20467;-54
2023/04/21 04:20:14;;;;;;;22.88;12.40;;;;;;;12.52;52.59;101899.28;4988362;28;20033;-51
2023/04/21 04:22:39;;;;;;;19.80;11.23;;;;;;;12.52;52.45;101894.00;5010939;28;20078;-55
2023/04/21 04:25:05;;;;;;;20.70;10.77;;;;;;;12.49;52.44;101889.72;4986138;28;20041;-53
2023/04/21 04:27:31;;;;;;;16.08;9.43;;;;;;;12.45;52.49;101898.72;5002329;28;20096;-52
2023/04/21 04:29:56;;;;;;;15.05;10.18;;;;;;;12.43;52.57;101896.16;5006928;28;20037;-53
2023/04/21 04:32:22;;;;;;;20.75;12.13;;;;;;;12.40;52.73;101895.44;4982029;28;20103;-54
2023/04/21 04:34:47;;;;;;;28.15;13.93;;;;;;;12.40;52.84;101898.09;4978059;28;20030;-53
2023/04/21 04:37:13;;;;;;;20.48;11.55;;;;;;;12.39;52.89;101896.38;5009138;28;20878;-56
2023/04/21 04:39:38;;;;;;;26.63;13.35;;;;;;;12.38;52.81;101892.88;4990307;28;20042;-52
2023/04/21 04:42:10;;;;;;;27.85;14.15;;;;;;;12.43;52.75;101896.16;4997071;28;20030;-54
2023/04/21 04:44:35;;;;;;;24.92;11.57;;;;;;;12.39;52.71;101901.66;4996273;28;20021;-56
2023/04/21 04:47:01;;;;;;;21.27;12.05;;;;;;;12.39;52.76;101904.28;5001162;28;20056;-53
2023/04/21 04:49:27;;;;;;;24.38;11.20;;;;;;;12.40;52.64;101896.28;5003848;28;20053;-50
2023/04/21 04:51:52;;;;;;;19.75;10.70;;;;;;;12.42;52.76;101894.44;4983336;28;20042;-55
2023/04/21 04:54:17;;;;;;;17.52;10.70;;;;;;;12.44;52.62;101892.59;4993942;28;20450;-50
2023/04/21 04:56:43;;;;;;;17.08;9.90;;;;;;;12.45;52.45;101893.44;4998807;28;20025;-53
2023/04/21 04:59:09;;;;;;;27.88;14.40;;;;;;;12.47;52.46;101895.09;5007736;28;20037;-54
2023/04/21 05:01:36;;;;;;;37.50;16.67;;;;;;;12.48;52.57;101893.28;5000788;28;20467;-57
2023/04/21 05:04:02;;;;;;;28.15;13.77;;;;;;;12.48;52.22;101904.69;5007524;28;20171;-53
2023/04/21 05:06:28;;;;;;;22.85;11.38;;;;;;;12.48;52.31;101903.84;4995232;28;20041;-52
2023/04/21 05:08:53;;;;;;;20.33;9.73;;;;;;;12.47;52.42;101895.09;4988854;28;20056;-53
2023/04/21 05:11:19;;;;;;;21.63;10.93;;;;;;;12.49;52.45;101906.41;5007031;28;20117;-58
2023/04/21 05:13:44;;;;;;;20.80;11.20;;;;;;;12.53;52.41;101900.97;5014364;28;20025;-50
2023/04/21 05:16:10;;;;;;;16.23;9.60;;;;;;;12.58;52.34;101906.91;5007120;28;20033;-56
2023/04/21 05:18:36;;;;;;;26.10;12.50;;;;;;;12.59;52.31;101904.19;5009422;28;20096;-55
2023/04/21 05:21:02;;;;;;;23.20;13.63;;;;;;;12.60;52.17;101907.69;5006772;28;20040;-53
2023/04/21 05:23:27;;;;;;;16.20;9.82;;;;;;;12.62;52.38;101903.19;5016052;28;20450;-57
2023/04/21 05:25:53;;;;;;;23.67;11.15;;;;;;;12.68;52.43;101908.16;5016046;28;20025;-50
2023/04/21 05:28:18;;;;;;;30.92;17.67;;;;;;;12.73;52.14;101913.22;5019291;28;20049;-53
2023/04/21 05:30:43;;;;;;;27.20;11.65;;;;;;;12.78;52.18;101916.50;4989188;28;20160;-54
2023/04/21 05:33:09;;;;;;;21.95;10.02;;;;;;;12.81;52.08;101922.50;5003364;28;20037;-51
2023/04/21 05:35:35;;;;;;;19.52;9.15;;;;;;;12.80;52.02;101923.41;4998727;28;20049;-52
2023/04/21 05:38:00;;;;;;;17.35;9.05;;;;;;;12.83;51.88;101918.91;5010183;28;20053;-57
2023/04/21 05:40:26;;;;;;;16.45;9.20;;;;;;;12.87;51.96;101916.06;5013034;28;20056;-53
2023/04/21 05:42:51;;;;;;;21.08;9.82;;;;;;;12.88;52.09;101911.66;5006217;28;20036;-52
2023/04/21 05:45:17;;;;;;;14.38;8.65;;;;;;;12.91;51.89;101909.69;5020290;28;20056;-55
2023/04/21 05:47:42;;;;;;;21.98;9.13;;;;;;;12.94;51.99;101911.31;5016791;28;20103;-53
2023/04/21 05:50:08;;;;;;;16.90;10.40;;;;;;;12.96;51.92;101909.47;5019743;28;20502;-56
2023/04/21 05:52:36;;;;;;;18.80;9.32;;;;;;;12.97;52.18;101908.53;5015291;28;20029;-55
2023/04/21 05:55:02;;;;;;;18.17;9.23;;;;;;;12.99;51.86;101909.31;5015290;28;20037;-55
2023/04/21 05:57:28;;;;;;;18.67;9.13;;;;;;;13.01;52.26;101907.47;5016452;28;20079;-55
2023/04/21 05:59:53;;;;;;;18.08;10.13;;;;;;;13.07;52.20;101909.81;5019321;28;20075;-55
2023/04/21 06:02:18;;;;;;;20.13;9.93;;;;;;;13.12;52.28;101909.56;5014355;28;20031;-53
2023/04/21 06:04:44;;;;;;;20.50;10.65;;;;;;;13.16;52.07;101903.19;5012536;28;20483;-52
2023/04/21 06:07:12;;;;;;;63.83;32.47;;;;;;;13.22;52.09;101904.69;5013964;28;20060;-54
2023/04/21 06:09:38;;;;;;;16.50;10.35;;;;;;;13.29;52.30;101914.00;5014479;28;20053;-52
2023/04/21 06:12:04;;;;;;;18.35;9.90;;;;;;;13.33;51.92;101912.94;5018195;28;20052;-54
2023/04/21 06:14:29;;;;;;;16.67;8.57;;;;;;;13.39;51.83;101906.47;5011379;28;20480;-54
2023/04/21 06:16:54;;;;;;;11.15;7.28;;;;;;;13.41;51.79;101910.75;4999927;28;20073;-55
2023/04/21 06:19:20;;;;;;;13.55;8.43;;;;;;;13.46;51.71;101899.94;5013196;28;20037;-54
2023/04/21 06:21:45;;;;;;;11.75;7.53;;;;;;;13.52;51.21;101904.09;5015789;28;20041;-58
2023/04/21 06:24:11;;;;;;;16.30;9.75;;;;;;;13.59;51.22;101897.53;5012288;28;20025;-50
2023/04/21 06:26:36;;;;;;;14.13;7.70;;;;;;;13.63;51.15;101904.38;4994846;28;20476;-55
2023/04/21 06:29:01;;;;;;;13.63;8.05;;;;;;;13.68;51.18;101901.50;5012842;28;20033;-54
2023/04/21 06:31:27;;;;;;;19.65;8.65;;;;;;;13.74;51.13;101897.66;5011508;28;20029;-52
2023/04/21 06:33:52;;;;;;;16.70;8.10;;;;;;;13.79;50.82;101900.94;5015902;28;20045;-54
2023/04/21 06:36:18;;;;;;;13.75;7.72;;;;;;;13.84;50.86;101893.63;5018040;28;22636;-55
2023/04/21 06:38:43;;;;;;;13.15;7.55;;;;;;;13.89;50.98;101896.00;5002094;28;20042;-55
2023/04/21 06:41:09;;;;;;;15.63;8.05;;;;;;;13.94;50.97;101900.13;5013381;28;20045;-54
2023/04/21 06:43:35;;;;;;;14.18;7.70;;;;;;;13.99;50.53;101898.06;5016174;28;20164;-53
2023/04/21 06:46:00;;;;;;;13.52;7.80;;;;;;;14.03;50.38;101894.31;5008284;28;20037;-56
2023/04/21 06:48:26;;;;;;;16.30;9.48;;;;;;;14.11;50.37;101885.13;5011516;28;20033;-54
2023/04/21 06:50:52;;;;;;;14.15;7.80;;;;;;;14.15;50.06;101890.16;5012059;28;20034;-55
2023/04/21 06:53:17;;;;;;;13.00;7.50;;;;;;;14.20;50.18;101881.97;5014618;28;20052;-54
2023/04/21 06:55:43;;;;;;;17.23;8.02;;;;;;;14.25;50.10;101885.22;5009386;28;20034;-55
2023/04/21 06:58:08;;;;;;;17.23;7.60;;;;;;;14.31;49.80;101884.88;5012202;28;20033;-55
2023/04/21 07:00:34;;;;;;;12.45;7.32;;;;;;;14.33;49.73;101883.00;5011963;28;20404;-55
2023/04/21 07:02:59;;;;;;;15.18;8.25;;;;;;;14.37;49.52;101882.81;5015658;28;20091;-54
2023/04/21 07:05:25;;;;;;;13.07;6.95;;;;;;;14.43;49.60;101882.50;5014616;28;20046;-55
2023/04/21 07:07:54;;;;;;;15.73;8.52;;;;;;;14.50;49.44;101885.66;5010867;28;20038;-55
2023/04/21 07:10:20;;;;;;;14.15;6.88;;;;;;;14.55;49.05;101888.88;5010163;28;20136;-55
2023/04/21 07:12:45;;;;;;;13.02;7.18;;;;;;;14.59;49.06;101883.34;5016876;28;20139;-53
2023/04/21 07:15:11;;;;;;;13.05;6.55;;;;;;;14.64;48.87;101885.72;5006118;28;20038;-54
2023/04/21 07:17:36;;;;;;;12.18;6.93;;;;;;;14.69;48.89;101877.53;5001430;28;20772;-54
2023/04/21 07:20:02;;;;;;;13.90;7.53;;;;;;;14.74;48.92;101875.50;5007113;28;20103;-54
2023/04/21 07:22:28;;;;;;;14.73;6.65;;;;;;;14.78;48.64;101880.53;5010835;28;20040;-52
2023/04/21 07:24:53;;;;;;;14.18;6.95;;;;;;;14.83;48.67;101880.25;5012542;28;20038;-54
2023/04/21 07:27:19;;;;;;;12.85;6.07;;;;;;;14.90;48.58;101888.69;5016022;28;20033;-53
2023/04/21 07:29:44;;;;;;;10.20;6.95;;;;;;;14.96;48.30;101890.13;5005620;28;20061;-50
2023/04/21 07:32:09;;;;;;;12.43;7.03;;;;;;;14.97;48.38;101889.19;5005597;28;20029;-55
2023/04/21 07:34:35;;;;;;;10.10;6.57;;;;;;;15.00;48.24;101891.66;5010661;28;20021;-54
2023/04/21 07:37:00;;;;;;;10.48;6.70;;;;;;;15.05;48.27;101886.97;4999988;28;20115;-55
2023/04/21 07:39:26;;;;;;;13.57;6.75;;;;;;;15.09;48.12;101885.81;4978254;28;20125;-53
2023/04/21 07:41:52;;;;;;;13.93;6.85;;;;;;;15.18;48.06;101884.44;4993741;28;20476;-55
2023/04/21 07:44:18;;;;;;;11.27;6.47;;;;;;;15.24;48.00;101881.41;5007764;28;20029;-55
2023/04/21 07:46:43;;;;;;;16.27;9.18;;;;;;;15.30;47.92;101890.81;5004295;28;20041;-55
2023/04/21 07:49:09;;;;;;;11.20;6.18;;;;;;;15.36;47.61;101882.47;5011845;28;20065;-51
2023/04/21 07:51:34;;;;;;;12.63;5.95;;;;;;;15.42;47.48;101882.13;4998018;28;20068;-54
2023/04/21 07:54:00;;;;;;;11.25;6.43;;;;;;;15.47;47.36;101880.03;5019463;28;20033;-53
2023/04/21 07:56:26;;;;;;;11.43;6.10;;;;;;;15.51;47.38;101875.41;5014824;28;20038;-55
2023/04/21 07:58:51;;;;;;;14.30;6.35;;;;;;;15.55;47.22;101872.47;5005751;28;20080;-56
2023/04/21 08:01:17;;;;;;;15.88;8.05;;;;;;;15.60;47.06;101868.69;5006487;28;20462;-53
2023/04/21 08:03:42;;;;;;;12.50;6.10;;;;;;;15.67;47.14;101870.88;5010659;28;20387;-53
2023/04/21 08:06:07;;;;;;;10.88;6.35;;;;;;;15.73;46.90;101864.31;5006804;28;20517;-53
2023/04/21 08:08:33;;;;;;;11.55;5.55;;;;;;;15.77;46.77;101859.66;5011777;28;20041;-54
2023/04/21 08:10:58;;;;;;;12.65;5.57;;;;;;;15.81;46.61;101866.50;5008755;28;20112;-54
2023/04/21 08:13:24;;;;;;;12.98;6.55;;;;;;;15.88;46.41;101867.00;5006953;28;20045;-54
2023/04/21 08:15:53;;;;;;;10.88;6.28;;;;;;;15.95;46.06;101863.03;5008950;28;20412;-55
2023/04/21 08:18:19;;;;;;;10.65;5.95;;;;;;;15.99;46.10;101848.59;5009811;28;20037;-52
2023/04/21 08:20:46;;;;;;;12.90;8.02;;;;;;;16.04;46.22;101859.78;5008879;28;20034;-54
2023/04/21 08:23:13;;;;;;;9.18;5.63;;;;;;;16.12;45.94;101849.50;5006819;28;20021;-54
2023/04/21 08:25:38;;;;;;;8.68;6.50;;;;;;;16.19;45.78;101849.97;5005625;28;20125;-54
2023/04/21 08:28:04;;;;;;;8.23;5.15;;;;;;;16.25;45.84;101854.91;5011886;28;20108;-54
2023/04/21 08:30:29;;;;;;;12.05;6.07;;;;;;;16.32;45.56;101860.69;5008654;28;20121;-55
2023/04/21 08:32:54;;;;;;;11.48;6.20;;;;;;;16.35;45.63;101855.16;5012032;28;20488;-55
2023/04/21 08:35:20;;;;;;;10.40;6.28;;;;;;;16.40;45.38;101847.78;5010091;28;20079;-55
2023/04/21 08:37:45;;;;;;;11.20;5.60;;;;;;;16.48;45.25;101849.06;4995948;28;20057;-56
2023/04/21 08:40:11;;;;;;;10.25;5.72;;;;;;;16.53;45.15;101841.66;4998868;28;20033;-54
2023/04/21 08:42:37;;;;;;;19.00;5.80;;;;;;;16.58;45.03;101844.84;5010411;28;20096;-54
2023/04/21 08:45:04;;;;;;;10.90;5.80;;;;;;;16.62;44.64;101846.34;5007676;28;20030;-55
2023/04/21 08:47:31;;;;;;;10.75;5.35;;;;;;;16.71;44.72;101840.41;5009621;28;20033;-55
2023/04/21 08:49:58;;;;;;;8.80;5.53;;;;;;;16.76;44.69;101842.78;5004168;28;20107;-54
2023/04/21 08:52:23;;;;;;;13.55;5.75;;;;;;;16.81;44.54;101839.81;5009491;28;20033;-55
2023/04/21 08:54:51;;;;;;;10.00;5.20;;;;;;;16.88;44.47;101841.09;5011327;28;20032;-55
2023/04/21 08:57:20;;;;;;;17.77;7.43;;;;;;;16.92;44.30;101835.50;5005847;28;20032;-52
2023/04/21 08:59:45;;;;;;;18.40;8.00;;;;;;;16.98;44.37;101838.69;5010342;28;20057;-55
2023/04/21 09:02:21;;;;;;;8.77;5.60;;;;;;;16.97;43.71;101837.88;5008728;28;20116;-54
2023/04/21 09:04:49;;;;;;;10.68;6.47;;;;;;;17.04;44.31;101830.31;5007580;28;20111;-55
2023/04/21 09:07:35;;;;;;;9.55;5.53;;;;;;;17.13;43.48;101839.47;5009911;28;20041;-56
2023/04/21 09:10:02;;;;;;;10.73;5.85;;;;;;;17.15;44.08;101832.25;5009620;28;20026;-56
2023/04/21 09:12:29;;;;;;;13.50;6.32;;;;;;;17.24;43.77;101834.28;5006188;28;20044;-52
2023/04/21 09:14:56;;;;;;;11.02;5.72;;;;;;;17.29;43.71;101834.81;5012735;28;20033;-54
2023/04/21 09:17:27;;;;;;;9.48;6.07;;;;;;;17.38;43.46;101833.34;5006486;28;20081;-54
2023/04/21 09:19:53;;;;;;;11.63;5.90;;;;;;;17.44;43.53;101838.19;5007478;28;20029;-55
2023/04/21 09:22:18;;;;;;;9.65;5.40;;;;;;;17.46;43.41;101835.47;5003698;28;20141;-55
2023/04/21 09:24:56;;;;;;;15.40;6.13;;;;;;;17.56;43.02;101835.63;5007979;28;20034;-56
2023/04/21 09:27:22;;;;;;;10.27;5.75;;;;;;;17.58;43.47;101839.91;5005039;28;20049;-54
2023/04/21 09:29:48;;;;;;;9.25;5.85;;;;;;;17.61;43.39;101839.69;5016385;28;20132;-56
2023/04/21 09:32:20;;;;;;;10.35;5.68;;;;;;;17.61;43.33;101834.38;4983905;28;20148;-56
2023/04/21 09:34:46;;;;;;;8.10;3.45;;;;;;;17.63;43.40;101835.09;5008435;28;20026;-56
2023/04/21 09:37:13;;;;;;;8.73;5.43;;;;;;;17.71;43.54;101834.56;5009703;28;20060;-54
2023/04/21 09:39:40;;;;;;;11.15;6.68;;;;;;;17.76;43.05;101831.59;5002570;28;20281;-53
2023/04/21 09:42:09;;;;;;;10.00;6.13;;;;;;;17.81;43.21;101837.41;5007916;28;20052;-55
2023/04/21 09:44:35;;;;;;;15.10;5.95;;;;;;;17.82;43.30;101829.34;5004491;28;20090;-53
2023/04/21 09:47:02;;;;;;;7.97;5.40;;;;;;;17.88;43.14;101835.16;5009285;28;20034;-51
2023/04/21 09:49:30;;;;;;;9.40;5.90;;;;;;;17.90;42.95;101828.78;5013022;28;20128;-54
2023/04/21 09:52:00;;;;;;;9.75;6.07;;;;;;;17.95;42.78;101821.31;5012257;28;20095;-53
2023/04/21 09:54:33;;;;;;;11.13;5.95;;;;;;;17.96;42.05;101817.69;5012067;28;20021;-56
2023/04/21 09:57:03;;;;;;;15.88;6.22;;;;;;;18.02;42.78;101829.72;5007407;28;20025;-55
2023/04/21 09:59:35;;;;;;;11.20;6.78;;;;;;;18.07;42.50;101819.59;5008798;28;20033;-56
2023/04/21 10:02:04;;;;;;;10.00;5.25;;;;;;;18.11;42.25;101821.09;5007599;28;20706;-56
2023/04/21 10:04:31;;;;;;;12.63;6.03;;;;;;;18.17;42.33;101818.94;5011306;28;20041;-55
2023/04/21 10:06:58;;;;;;;10.48;5.88;;;;;;;18.22;42.26;101822.13;5013633;28;20163;-55
2023/04/21 10:09:32;;;;;;;11.80;5.47;;;;;;;18.25;41.84;101811.25;5014049;28;20033;-55
2023/04/21 10:12:00;;;;;;;9.32;5.50;;;;;;;18.30;41.82;101816.22;5008319;28;28799;-55
2023/04/21 10:14:26;;;;;;;12.10;5.60;;;;;;;18.34;41.71;101809.72;5009356;28;20060;-56
2023/04/21 10:17:11;;;;;;;9.57;5.90;;;;;;;18.44;40.58;101800.06;5011007;28;20160;-56
2023/04/21 10:19:46;;;;;;;10.00;5.45;;;;;;;18.48;41.44;101806.88;5007691;28;20500;-56
2023/04/21 10:22:12;;;;;;;13.77;6.13;;;;;;;18.50;40.98;101799.63;5006159;28;20043;-56
2023/04/21 10:24:39;;;;;;;9.15;5.70;;;;;;;18.57;40.92;101808.00;5003791;28;20033;-56
2023/04/21 10:27:04;;;;;;;12.40;6.05;;;;;;;18.58;40.99;101797.22;5006465;28;20060;-55
2023/04/21 10:29:32;;;;;;;9.80;5.22;;;;;;;18.64;40.27;101805.72;5010379;28;20133;-56
2023/04/21 10:31:58;;;;;;;13.35;6.55;;;;;;;18.66;40.46;101799.31;5011678;28;20044;-55
2023/04/21 10:34:23;;;;;;;11.52;6.00;;;;;;;18.68;40.16;101793.88;5008983;28;20033;-55
2023/04/21 10:37:07;;;;;;;12.57;5.80;;;;;;;18.71;39.56;101790.94;5015092;28;20033;-55
2023/04/21 10:39:42;;;;;;;9.18;5.65;;;;;;;18.71;39.17;101793.63;5017084;28;20022;-56
2023/04/21 10:42:18;;;;;;;13.02;6.20;;;;;;;18.76;38.69;101791.47;5016501;28;20064;-56
2023/04/21 10:45:03;;;;;;;11.50;6.55;;;;;;;18.83;38.50;101790.00;5010542;28;20052;-57
2023/04/21 10:47:51;;;;;;;9.75;5.75;;;;;;;18.86;37.57;101787.13;5012055;28;20518;-56
2023/04/21 10:50:22;;;;;;;11.05;5.55;;;;;;;18.93;38.41;101790.16;5012237;28;20422;-56
2023/04/21 10:53:09;;;;;;;9.50;5.73;;;;;;;19.00;37.52;101787.91;5008801;28;20061;-53
2023/04/21 10:55:34;;;;;;;9.30;5.25;;;;;;;18.98;38.16;101785.38;5007917;28;20033;-55
2023/04/21 10:58:06;;;;;;;8.65;5.30;;;;;;;19.02;38.17;101784.16;5016194;28;20033;-53
2023/04/21 11:00:31;;;;;;;7.63;4.80;;;;;;;19.05;38.13;101783.06;5013386;28;20037;-56
2023/04/21 11:03:00;;;;;;;9.65;5.68;;;;;;;19.12;37.78;101783.44;5012461;28;20454;-56
2023/04/21 11:05:27;;;;;;;7.78;5.32;;;;;;;19.15;37.75;101772.53;5011592;28;20029;-55
2023/04/21 11:08:01;;;;;;;8.30;5.35;;;;;;;19.14;35.21;101782.34;5013978;28;20037;-55
2023/04/21 11:10:27;;;;;;;9.98;5.57;;;;;;;19.16;37.05;101772.41;5005080;28;20025;-55
2023/04/21 11:12:56;;;;;;;8.80;5.30;;;;;;;19.24;37.02;101771.81;5011701;28;20033;-54